sensor_id;sensor_type;location;lat;lon;timestamp;temperature;humidity
1994;DHT22;998;49.906;10.908;2023-07-13T00:00:53;24.30;98.20
1994;DHT22;998;49.906;10.908;2023-07-13T00:03:22;24.30;98.60
1994;DHT22;998;49.906;10.908;2023-07-13T00:05:57;24.20;98.40
1994;DHT22;998;49.906;10.908;2023-07-13T00:08:24;24.20;98.50
1994;DHT22;998;49.906;10.908;2023-07-13T00:10:53;24.10;98.70
1994;DHT22;998;49.906;10.908;2023-07-13T00:13:21;24.10;99.00
1994;DHT22;998;49.906;10.908;2023-07-13T00:15:48;24.10;99.00
1994;DHT22;998;49.906;10.908;2023-07-13T00:18:16;24.00;99.10
1994;DHT22;998;49.906;10.908;2023-07-13T00:20:43;24.00;99.30
1994;DHT22;998;49.906;10.908;2023-07-13T00:23:11;24.00;99.30
1994;DHT22;998;49.906;10.908;2023-07-13T00:25:38;24.00;99.50
1994;DHT22;998;49.906;10.908;2023-07-13T00:28:07;23.90;99.60
1994;DHT22;998;49.906;10.908;2023-07-13T00:30:34;23.90;99.70
1994;DHT22;998;49.906;10.908;2023-07-13T00:33:02;23.90;99.80
1994;DHT22;998;49.906;10.908;2023-07-13T00:35:30;23.80;99.90
1994;DHT22;998;49.906;10.908;2023-07-13T00:37:59;23.70;99.90
1994;DHT22;998;49.906;10.908;2023-07-13T00:40:26;23.80;99.90
1994;DHT22;998;49.906;10.908;2023-07-13T00:42:56;23.80;99.90
1994;DHT22;998;49.906;10.908;2023-07-13T00:48:33;23.70;99.90
1994;DHT22;998;49.906;10.908;2023-07-13T00:51:01;23.60;99.90
1994;DHT22;998;49.906;10.908;2023-07-13T00:53:32;23.60;99.90
1994;DHT22;998;49.906;10.908;2023-07-13T00:55:59;23.50;99.90
1994;DHT22;998;49.906;10.908;2023-07-13T00:58:28;23.50;99.90
1994;DHT22;998;49.906;10.908;2023-07-13T01:00:56;23.40;99.90
1994;DHT22;998;49.906;10.908;2023-07-13T01:03:23;23.50;99.90
1994;DHT22;998;49.906;10.908;2023-07-13T01:05:51;23.50;99.90
1994;DHT22;998;49.906;10.908;2023-07-13T01:08:20;23.40;99.90
1994;DHT22;998;49.906;10.908;2023-07-13T01:10:54;23.40;99.90
1994;DHT22;998;49.906;10.908;2023-07-13T01:13:22;23.30;99.90
1994;DHT22;998;49.906;10.908;2023-07-13T01:15:51;23.20;99.90
1994;DHT22;998;49.906;10.908;2023-07-13T01:18:22;23.20;99.90
1994;DHT22;998;49.906;10.908;2023-07-13T01:20:53;23.20;99.90
1994;DHT22;998;49.906;10.908;2023-07-13T01:23:21;23.10;99.90
1994;DHT22;998;49.906;10.908;2023-07-13T01:25:52;23.10;99.90
1994;DHT22;998;49.906;10.908;2023-07-13T01:28:21;23.00;99.90
1994;DHT22;998;49.906;10.908;2023-07-13T01:30:49;23.00;99.90
1994;DHT22;998;49.906;10.908;2023-07-13T01:33:17;23.10;99.90
1994;DHT22;998;49.906;10.908;2023-07-13T01:35:45;23.10;99.90
1994;DHT22;998;49.906;10.908;2023-07-13T01:38:15;23.20;99.90
1994;DHT22;998;49.906;10.908;2023-07-13T01:40:43;23.20;99.90
1994;DHT22;998;49.906;10.908;2023-07-13T01:43:11;23.20;99.90
1994;DHT22;998;49.906;10.908;2023-07-13T01:45:38;23.10;99.90
1994;DHT22;998;49.906;10.908;2023-07-13T01:48:06;23.10;99.90
1994;DHT22;998;49.906;10.908;2023-07-13T01:50:34;23.10;99.90
1994;DHT22;998;49.906;10.908;2023-07-13T01:53:02;23.10;99.90
1994;DHT22;998;49.906;10.908;2023-07-13T01:55:31;23.10;99.90
1994;DHT22;998;49.906;10.908;2023-07-13T01:57:59;23.00;99.90
1994;DHT22;998;49.906;10.908;2023-07-13T02:00:26;23.00;99.90
1994;DHT22;998;49.906;10.908;2023-07-13T02:02:53;23.00;99.90
1994;DHT22;998;49.906;10.908;2023-07-13T02:05:20;22.80;99.90
1994;DHT22;998;49.906;10.908;2023-07-13T02:07:48;22.80;99.90
1994;DHT22;998;49.906;10.908;2023-07-13T02:10:16;22.70;99.90
1994;DHT22;998;49.906;10.908;2023-07-13T02:12:45;22.70;99.90
1994;DHT22;998;49.906;10.908;2023-07-13T02:15:12;22.70;99.90
1994;DHT22;998;49.906;10.908;2023-07-13T02:17:39;22.70;99.90
1994;DHT22;998;49.906;10.908;2023-07-13T02:20:07;22.50;99.90
1994;DHT22;998;49.906;10.908;2023-07-13T02:22:35;22.50;99.90
1994;DHT22;998;49.906;10.908;2023-07-13T02:25:02;22.40;99.90
1994;DHT22;998;49.906;10.908;2023-07-13T02:27:30;22.40;99.90
1994;DHT22;998;49.906;10.908;2023-07-13T02:29:59;22.50;99.90
1994;DHT22;998;49.906;10.908;2023-07-13T02:32:26;22.50;99.90
1994;DHT22;998;49.906;10.908;2023-07-13T02:34:54;22.40;99.90
1994;DHT22;998;49.906;10.908;2023-07-13T02:37:21;22.40;99.90
1994;DHT22;998;49.906;10.908;2023-07-13T02:39:48;22.40;99.90
1994;DHT22;998;49.906;10.908;2023-07-13T02:42:16;22.30;99.90
1994;DHT22;998;49.906;10.908;2023-07-13T02:44:43;22.30;99.90
1994;DHT22;998;49.906;10.908;2023-07-13T02:47:12;22.20;99.90
1994;DHT22;998;49.906;10.908;2023-07-13T02:49:40;22.30;99.90
1994;DHT22;998;49.906;10.908;2023-07-13T02:52:07;22.20;99.90
1994;DHT22;998;49.906;10.908;2023-07-13T02:54:34;22.20;99.90
1994;DHT22;998;49.906;10.908;2023-07-13T02:57:02;22.20;99.90
1994;DHT22;998;49.906;10.908;2023-07-13T02:59:30;22.20;99.90
1994;DHT22;998;49.906;10.908;2023-07-13T03:01:58;22.20;99.90
1994;DHT22;998;49.906;10.908;2023-07-13T03:04:26;22.10;99.90
1994;DHT22;998;49.906;10.908;2023-07-13T03:06:54;22.10;99.90
1994;DHT22;998;49.906;10.908;2023-07-13T03:09:23;22.10;99.90
1994;DHT22;998;49.906;10.908;2023-07-13T03:11:53;22.10;99.90
1994;DHT22;998;49.906;10.908;2023-07-13T03:14:21;22.00;99.90
1994;DHT22;998;49.906;10.908;2023-07-13T03:16:49;22.00;99.90
1994;DHT22;998;49.906;10.908;2023-07-13T03:19:16;22.10;99.90
1994;DHT22;998;49.906;10.908;2023-07-13T03:21:45;21.90;99.90
1994;DHT22;998;49.906;10.908;2023-07-13T03:24:12;21.90;99.90
1994;DHT22;998;49.906;10.908;2023-07-13T03:26:41;21.80;99.90
1994;DHT22;998;49.906;10.908;2023-07-13T03:29:08;21.80;99.90
1994;DHT22;998;49.906;10.908;2023-07-13T03:31:38;21.70;99.90
1994;DHT22;998;49.906;10.908;2023-07-13T03:34:05;21.70;99.90
1994;DHT22;998;49.906;10.908;2023-07-13T03:36:33;21.70;99.90
1994;DHT22;998;49.906;10.908;2023-07-13T03:39:03;21.70;99.90
1994;DHT22;998;49.906;10.908;2023-07-13T03:41:34;21.80;99.90
1994;DHT22;998;49.906;10.908;2023-07-13T03:44:01;21.70;99.90
1994;DHT22;998;49.906;10.908;2023-07-13T03:46:29;21.70;99.90
1994;DHT22;998;49.906;10.908;2023-07-13T03:48:57;21.80;99.90
1994;DHT22;998;49.906;10.908;2023-07-13T03:51:25;21.70;99.90
1994;DHT22;998;49.906;10.908;2023-07-13T03:53:52;21.80;99.90
1994;DHT22;998;49.906;10.908;2023-07-13T03:56:21;21.70;99.90
1994;DHT22;998;49.906;10.908;2023-07-13T03:58:50;21.70;99.90
1994;DHT22;998;49.906;10.908;2023-07-13T04:01:19;21.60;99.90
1994;DHT22;998;49.906;10.908;2023-07-13T04:03:47;21.70;99.90
1994;DHT22;998;49.906;10.908;2023-07-13T04:06:17;21.60;99.90
1994;DHT22;998;49.906;10.908;2023-07-13T04:08:48;21.60;99.90
1994;DHT22;998;49.906;10.908;2023-07-13T04:11:16;21.60;99.90
1994;DHT22;998;49.906;10.908;2023-07-13T04:13:45;21.70;99.90
1994;DHT22;998;49.906;10.908;2023-07-13T04:16:13;21.60;99.90
1994;DHT22;998;49.906;10.908;2023-07-13T04:18:40;21.60;99.90
1994;DHT22;998;49.906;10.908;2023-07-13T04:21:08;21.50;99.90
1994;DHT22;998;49.906;10.908;2023-07-13T04:23:37;21.60;99.90
1994;DHT22;998;49.906;10.908;2023-07-13T04:26:05;21.40;99.90
1994;DHT22;998;49.906;10.908;2023-07-13T04:28:33;21.40;99.90
1994;DHT22;998;49.906;10.908;2023-07-13T04:31:03;21.40;99.90
1994;DHT22;998;49.906;10.908;2023-07-13T04:33:30;21.40;99.90
1994;DHT22;998;49.906;10.908;2023-07-13T04:35:57;21.50;99.90
1994;DHT22;998;49.906;10.908;2023-07-13T04:38:26;21.60;99.90
1994;DHT22;998;49.906;10.908;2023-07-13T04:40:55;21.60;99.90
1994;DHT22;998;49.906;10.908;2023-07-13T04:43:23;21.70;99.90
1994;DHT22;998;49.906;10.908;2023-07-13T04:45:51;21.60;99.90
1994;DHT22;998;49.906;10.908;2023-07-13T04:48:20;21.60;99.90
1994;DHT22;998;49.906;10.908;2023-07-13T04:50:48;21.60;99.90
1994;DHT22;998;49.906;10.908;2023-07-13T04:53:21;21.60;99.90
1994;DHT22;998;49.906;10.908;2023-07-13T04:55:48;21.50;99.90
1994;DHT22;998;49.906;10.908;2023-07-13T04:58:15;21.40;99.90
1994;DHT22;998;49.906;10.908;2023-07-13T05:00:43;21.50;99.90
1994;DHT22;998;49.906;10.908;2023-07-13T05:03:10;21.50;99.90
1994;DHT22;998;49.906;10.908;2023-07-13T05:05:39;21.60;99.90
1994;DHT22;998;49.906;10.908;2023-07-13T05:08:06;21.50;99.90
1994;DHT22;998;49.906;10.908;2023-07-13T05:10:35;21.60;99.90
1994;DHT22;998;49.906;10.908;2023-07-13T05:13:03;21.50;99.90
1994;DHT22;998;49.906;10.908;2023-07-13T05:15:30;21.60;99.90
1994;DHT22;998;49.906;10.908;2023-07-13T05:17:57;21.60;99.90
1994;DHT22;998;49.906;10.908;2023-07-13T05:20:25;21.60;99.90
1994;DHT22;998;49.906;10.908;2023-07-13T05:22:54;21.70;99.90
1994;DHT22;998;49.906;10.908;2023-07-13T05:25:21;21.70;99.90
1994;DHT22;998;49.906;10.908;2023-07-13T05:27:48;21.80;99.90
1994;DHT22;998;49.906;10.908;2023-07-13T05:30:16;21.70;99.90
1994;DHT22;998;49.906;10.908;2023-07-13T05:32:43;21.70;99.90
1994;DHT22;998;49.906;10.908;2023-07-13T05:35:11;21.70;99.90
1994;DHT22;998;49.906;10.908;2023-07-13T05:37:39;21.60;99.90
1994;DHT22;998;49.906;10.908;2023-07-13T05:40:08;21.60;99.90
1994;DHT22;998;49.906;10.908;2023-07-13T05:42:36;21.70;99.90
1994;DHT22;998;49.906;10.908;2023-07-13T05:45:04;21.70;99.90
1994;DHT22;998;49.906;10.908;2023-07-13T05:47:31;21.60;99.90
1994;DHT22;998;49.906;10.908;2023-07-13T05:49:59;21.70;99.90
1994;DHT22;998;49.906;10.908;2023-07-13T05:52:26;21.70;99.90
1994;DHT22;998;49.906;10.908;2023-07-13T05:54:53;21.70;99.90
1994;DHT22;998;49.906;10.908;2023-07-13T05:57:22;21.70;99.90
1994;DHT22;998;49.906;10.908;2023-07-13T05:59:49;21.70;99.90
1994;DHT22;998;49.906;10.908;2023-07-13T06:02:17;21.70;99.90
1994;DHT22;998;49.906;10.908;2023-07-13T06:04:44;21.60;99.90
1994;DHT22;998;49.906;10.908;2023-07-13T06:07:12;21.60;99.90
1994;DHT22;998;49.906;10.908;2023-07-13T06:09:39;21.60;99.90
1994;DHT22;998;49.906;10.908;2023-07-13T06:12:07;21.60;99.90
1994;DHT22;998;49.906;10.908;2023-07-13T06:14:36;21.70;99.90
1994;DHT22;998;49.906;10.908;2023-07-13T06:17:04;21.60;99.90
1994;DHT22;998;49.906;10.908;2023-07-13T06:19:32;21.50;99.90
1994;DHT22;998;49.906;10.908;2023-07-13T06:21:59;21.50;99.90
1994;DHT22;998;49.906;10.908;2023-07-13T06:24:28;21.60;99.90
1994;DHT22;998;49.906;10.908;2023-07-13T06:26:55;21.60;99.90
1994;DHT22;998;49.906;10.908;2023-07-13T06:29:23;21.60;99.90
1994;DHT22;998;49.906;10.908;2023-07-13T06:31:51;21.50;99.90
1994;DHT22;998;49.906;10.908;2023-07-13T06:34:19;21.60;99.90
1994;DHT22;998;49.906;10.908;2023-07-13T06:36:46;21.50;99.90
1994;DHT22;998;49.906;10.908;2023-07-13T06:39:14;21.60;99.90
1994;DHT22;998;49.906;10.908;2023-07-13T06:41:41;21.50;99.90
1994;DHT22;998;49.906;10.908;2023-07-13T06:44:08;21.50;99.90
1994;DHT22;998;49.906;10.908;2023-07-13T06:46:35;21.50;99.90
1994;DHT22;998;49.906;10.908;2023-07-13T06:49:04;21.50;99.90
1994;DHT22;998;49.906;10.908;2023-07-13T06:51:31;21.50;99.90
1994;DHT22;998;49.906;10.908;2023-07-13T06:53:58;21.50;99.90
1994;DHT22;998;49.906;10.908;2023-07-13T06:56:26;21.50;99.90
1994;DHT22;998;49.906;10.908;2023-07-13T06:58:53;21.40;99.90
1994;DHT22;998;49.906;10.908;2023-07-13T07:01:20;21.50;99.90
1994;DHT22;998;49.906;10.908;2023-07-13T07:03:48;21.50;99.90
1994;DHT22;998;49.906;10.908;2023-07-13T07:06:20;21.60;99.90
1994;DHT22;998;49.906;10.908;2023-07-13T07:08:49;21.60;99.90
1994;DHT22;998;49.906;10.908;2023-07-13T07:11:18;21.70;99.90
1994;DHT22;998;49.906;10.908;2023-07-13T07:13:46;21.70;99.90
1994;DHT22;998;49.906;10.908;2023-07-13T07:16:13;21.70;99.90
1994;DHT22;998;49.906;10.908;2023-07-13T07:18:40;21.80;99.90
1994;DHT22;998;49.906;10.908;2023-07-13T07:21:08;21.80;99.90
1994;DHT22;998;49.906;10.908;2023-07-13T07:23:37;21.80;99.90
1994;DHT22;998;49.906;10.908;2023-07-13T07:26:04;21.90;99.90
1994;DHT22;998;49.906;10.908;2023-07-13T07:28:34;21.90;99.90
1994;DHT22;998;49.906;10.908;2023-07-13T07:31:02;21.80;99.90
1994;DHT22;998;49.906;10.908;2023-07-13T07:33:29;21.70;99.90
1994;DHT22;998;49.906;10.908;2023-07-13T07:35:56;21.70;99.90
1994;DHT22;998;49.906;10.908;2023-07-13T07:38:24;21.80;99.90
1994;DHT22;998;49.906;10.908;2023-07-13T07:40:53;21.80;99.90
1994;DHT22;998;49.906;10.908;2023-07-13T07:43:20;21.80;99.90
1994;DHT22;998;49.906;10.908;2023-07-13T07:45:48;21.80;99.90
1994;DHT22;998;49.906;10.908;2023-07-13T07:48:15;21.80;99.90
1994;DHT22;998;49.906;10.908;2023-07-13T07:50:43;21.80;99.90
1994;DHT22;998;49.906;10.908;2023-07-13T07:53:10;21.80;99.90
1994;DHT22;998;49.906;10.908;2023-07-13T07:55:38;21.80;99.90
1994;DHT22;998;49.906;10.908;2023-07-13T07:58:07;21.80;99.90
1994;DHT22;998;49.906;10.908;2023-07-13T08:00:35;21.80;99.90
1994;DHT22;998;49.906;10.908;2023-07-13T08:03:02;21.70;99.90
1994;DHT22;998;49.906;10.908;2023-07-13T08:05:30;21.80;99.90
1994;DHT22;998;49.906;10.908;2023-07-13T08:07:57;21.80;99.70
1994;DHT22;998;49.906;10.908;2023-07-13T08:10:24;21.80;99.90
1994;DHT22;998;49.906;10.908;2023-07-13T08:12:52;21.90;97.20
1994;DHT22;998;49.906;10.908;2023-07-13T08:15:21;21.80;95.80
1994;DHT22;998;49.906;10.908;2023-07-13T08:17:48;21.80;94.90
1994;DHT22;998;49.906;10.908;2023-07-13T08:20:16;21.90;95.40
1994;DHT22;998;49.906;10.908;2023-07-13T08:22:43;21.90;94.60
1994;DHT22;998;49.906;10.908;2023-07-13T08:25:11;21.90;94.80
1994;DHT22;998;49.906;10.908;2023-07-13T08:27:38;22.00;94.30
1994;DHT22;998;49.906;10.908;2023-07-13T08:30:06;22.10;99.90
1994;DHT22;998;49.906;10.908;2023-07-13T08:32:36;22.00;93.60
1994;DHT22;998;49.906;10.908;2023-07-13T08:35:05;22.10;91.70
1994;DHT22;998;49.906;10.908;2023-07-13T08:37:32;22.10;92.20
1994;DHT22;998;49.906;10.908;2023-07-13T08:40:00;22.10;92.00
1994;DHT22;998;49.906;10.908;2023-07-13T08:42:33;22.10;91.80
1994;DHT22;998;49.906;10.908;2023-07-13T08:45:08;22.20;91.50
1994;DHT22;998;49.906;10.908;2023-07-13T08:47:44;22.10;90.80
1994;DHT22;998;49.906;10.908;2023-07-13T08:50:15;22.10;90.10
1994;DHT22;998;49.906;10.908;2023-07-13T08:52:44;22.10;90.50
1994;DHT22;998;49.906;10.908;2023-07-13T08:55:14;22.10;90.90
1994;DHT22;998;49.906;10.908;2023-07-13T08:57:44;22.20;88.20
1994;DHT22;998;49.906;10.908;2023-07-13T09:00:13;22.10;87.90
1994;DHT22;998;49.906;10.908;2023-07-13T09:02:46;22.20;88.00
1994;DHT22;998;49.906;10.908;2023-07-13T09:05:27;22.30;85.40
1994;DHT22;998;49.906;10.908;2023-07-13T09:08:14;22.30;83.20
1994;DHT22;998;49.906;10.908;2023-07-13T09:10:46;22.30;81.90
1994;DHT22;998;49.906;10.908;2023-07-13T09:13:23;22.30;81.00
1994;DHT22;998;49.906;10.908;2023-07-13T09:15:53;22.30;82.70
1994;DHT22;998;49.906;10.908;2023-07-13T09:18:27;22.40;82.80
1994;DHT22;998;49.906;10.908;2023-07-13T09:20:58;22.40;82.60
1994;DHT22;998;49.906;10.908;2023-07-13T09:23:29;22.40;84.20
1994;DHT22;998;49.906;10.908;2023-07-13T09:26:02;22.40;84.00
1994;DHT22;998;49.906;10.908;2023-07-13T09:28:37;22.40;84.80
1994;DHT22;998;49.906;10.908;2023-07-13T09:31:09;22.50;84.50
1994;DHT22;998;49.906;10.908;2023-07-13T09:33:41;22.60;83.60
1994;DHT22;998;49.906;10.908;2023-07-13T09:36:23;22.60;82.90
1994;DHT22;998;49.906;10.908;2023-07-13T09:38:59;22.60;83.70
1994;DHT22;998;49.906;10.908;2023-07-13T09:41:37;22.60;84.80
1994;DHT22;998;49.906;10.908;2023-07-13T09:44:10;22.70;84.00
1994;DHT22;998;49.906;10.908;2023-07-13T09:46:39;22.70;82.00
1994;DHT22;998;49.906;10.908;2023-07-13T09:49:10;22.60;81.10
1994;DHT22;998;49.906;10.908;2023-07-13T09:51:37;22.70;79.90
1994;DHT22;998;49.906;10.908;2023-07-13T09:54:05;22.70;79.20
1994;DHT22;998;49.906;10.908;2023-07-13T09:56:32;22.70;80.20
1994;DHT22;998;49.906;10.908;2023-07-13T09:59:00;22.70;79.80
1994;DHT22;998;49.906;10.908;2023-07-13T10:01:35;22.80;80.50
1994;DHT22;998;49.906;10.908;2023-07-13T10:04:12;22.70;79.40
1994;DHT22;998;49.906;10.908;2023-07-13T10:06:41;22.80;80.40
1994;DHT22;998;49.906;10.908;2023-07-13T10:09:09;22.80;80.00
1994;DHT22;998;49.906;10.908;2023-07-13T10:11:40;23.00;77.70
1994;DHT22;998;49.906;10.908;2023-07-13T10:14:13;23.00;76.20
1994;DHT22;998;49.906;10.908;2023-07-13T10:16:42;22.90;77.60
1994;DHT22;998;49.906;10.908;2023-07-13T10:19:15;22.90;78.00
1994;DHT22;998;49.906;10.908;2023-07-13T10:21:50;22.90;76.20
1994;DHT22;998;49.906;10.908;2023-07-13T10:24:22;22.90;75.40
1994;DHT22;998;49.906;10.908;2023-07-13T10:26:55;22.90;74.70
1994;DHT22;998;49.906;10.908;2023-07-13T10:29:26;23.00;76.70
1994;DHT22;998;49.906;10.908;2023-07-13T10:31:54;23.00;77.70
1994;DHT22;998;49.906;10.908;2023-07-13T10:34:24;23.10;76.80
1994;DHT22;998;49.906;10.908;2023-07-13T10:36:52;23.10;77.10
1994;DHT22;998;49.906;10.908;2023-07-13T10:39:21;23.20;76.50
1994;DHT22;998;49.906;10.908;2023-07-13T10:41:52;23.20;75.20
1994;DHT22;998;49.906;10.908;2023-07-13T10:44:23;23.20;76.70
1994;DHT22;998;49.906;10.908;2023-07-13T10:46:55;23.20;77.30
1994;DHT22;998;49.906;10.908;2023-07-13T10:49:28;23.20;77.20
1994;DHT22;998;49.906;10.908;2023-07-13T10:51:56;23.20;78.10
1994;DHT22;998;49.906;10.908;2023-07-13T10:54:28;23.30;78.10
1994;DHT22;998;49.906;10.908;2023-07-13T10:57:16;23.30;77.10
1994;DHT22;998;49.906;10.908;2023-07-13T11:00:08;23.40;78.40
1994;DHT22;998;49.906;10.908;2023-07-13T11:02:36;23.50;78.10
1994;DHT22;998;49.906;10.908;2023-07-13T11:05:26;23.50;77.70
1994;DHT22;998;49.906;10.908;2023-07-13T11:08:02;23.50;77.80
1994;DHT22;998;49.906;10.908;2023-07-13T11:10:51;23.50;76.80
1994;DHT22;998;49.906;10.908;2023-07-13T11:13:38;23.60;77.30
1994;DHT22;998;49.906;10.908;2023-07-13T11:16:46;23.60;75.60
1994;DHT22;998;49.906;10.908;2023-07-13T11:19:28;23.60;76.20
1994;DHT22;998;49.906;10.908;2023-07-13T11:22:14;23.60;75.70
1994;DHT22;998;49.906;10.908;2023-07-13T11:25:00;23.60;76.20
1994;DHT22;998;49.906;10.908;2023-07-13T11:27:36;23.60;77.20
1994;DHT22;998;49.906;10.908;2023-07-13T11:30:13;23.70;77.20
1994;DHT22;998;49.906;10.908;2023-07-13T11:32:45;23.80;76.00
1994;DHT22;998;49.906;10.908;2023-07-13T11:35:21;23.80;75.40
1994;DHT22;998;49.906;10.908;2023-07-13T11:37:51;23.70;75.40
1994;DHT22;998;49.906;10.908;2023-07-13T11:40:20;23.80;76.10
1994;DHT22;998;49.906;10.908;2023-07-13T11:42:49;23.90;75.30
1994;DHT22;998;49.906;10.908;2023-07-13T11:45:21;23.90;75.20
1994;DHT22;998;49.906;10.908;2023-07-13T11:47:50;23.80;74.70
1994;DHT22;998;49.906;10.908;2023-07-13T11:50:19;23.80;76.30
1994;DHT22;998;49.906;10.908;2023-07-13T11:52:47;24.00;75.90
1994;DHT22;998;49.906;10.908;2023-07-13T11:55:20;24.10;75.20
1994;DHT22;998;49.906;10.908;2023-07-13T11:57:51;24.20;76.00
1994;DHT22;998;49.906;10.908;2023-07-13T12:00:22;24.10;75.30
1994;DHT22;998;49.906;10.908;2023-07-13T12:02:52;24.20;75.20
1994;DHT22;998;49.906;10.908;2023-07-13T12:05:20;24.10;75.00
1994;DHT22;998;49.906;10.908;2023-07-13T12:07:49;24.10;75.40
1994;DHT22;998;49.906;10.908;2023-07-13T12:10:23;24.00;75.10
1994;DHT22;998;49.906;10.908;2023-07-13T12:12:53;24.00;75.50
1994;DHT22;998;49.906;10.908;2023-07-13T12:15:27;24.20;74.80
1994;DHT22;998;49.906;10.908;2023-07-13T12:17:56;24.30;73.40
1994;DHT22;998;49.906;10.908;2023-07-13T12:20:25;24.60;73.00
1994;DHT22;998;49.906;10.908;2023-07-13T12:22:53;24.60;72.00
1994;DHT22;998;49.906;10.908;2023-07-13T12:25:23;24.60;71.90
1994;DHT22;998;49.906;10.908;2023-07-13T12:27:51;24.50;73.10
1994;DHT22;998;49.906;10.908;2023-07-13T12:30:27;24.60;73.70
1994;DHT22;998;49.906;10.908;2023-07-13T12:32:58;24.70;72.60
1994;DHT22;998;49.906;10.908;2023-07-13T12:35:29;24.60;72.00
1994;DHT22;998;49.906;10.908;2023-07-13T12:38:01;24.80;71.80
1994;DHT22;998;49.906;10.908;2023-07-13T12:40:33;24.90;69.90
1994;DHT22;998;49.906;10.908;2023-07-13T12:43:02;24.80;70.40
1994;DHT22;998;49.906;10.908;2023-07-13T12:45:33;25.00;70.80
1994;DHT22;998;49.906;10.908;2023-07-13T12:48:05;25.40;72.10
1994;DHT22;998;49.906;10.908;2023-07-13T12:50:38;25.90;70.50
1994;DHT22;998;49.906;10.908;2023-07-13T12:53:13;26.30;69.80
1994;DHT22;998;49.906;10.908;2023-07-13T12:55:46;26.20;68.50
1994;DHT22;998;49.906;10.908;2023-07-13T12:58:18;25.90;68.80
1994;DHT22;998;49.906;10.908;2023-07-13T13:00:50;25.50;69.60
1994;DHT22;998;49.906;10.908;2023-07-13T13:03:26;25.30;70.60
1994;DHT22;998;49.906;10.908;2023-07-13T13:05:58;25.30;70.80
1994;DHT22;998;49.906;10.908;2023-07-13T13:08:29;25.40;70.80
1994;DHT22;998;49.906;10.908;2023-07-13T13:10:58;25.40;70.80
1994;DHT22;998;49.906;10.908;2023-07-13T13:13:25;25.80;70.00
1994;DHT22;998;49.906;10.908;2023-07-13T13:15:53;26.40;69.20
1994;DHT22;998;49.906;10.908;2023-07-13T13:18:23;26.40;67.60
1994;DHT22;998;49.906;10.908;2023-07-13T13:20:51;26.20;67.00
1994;DHT22;998;49.906;10.908;2023-07-13T13:23:19;26.10;68.10
1994;DHT22;998;49.906;10.908;2023-07-13T13:25:50;26.20;67.20
1994;DHT22;998;49.906;10.908;2023-07-13T13:28:21;26.30;66.20
1994;DHT22;998;49.906;10.908;2023-07-13T13:30:50;26.30;68.10
1994;DHT22;998;49.906;10.908;2023-07-13T13:33:20;26.70;66.80
1994;DHT22;998;49.906;10.908;2023-07-13T13:35:49;26.30;67.00
1994;DHT22;998;49.906;10.908;2023-07-13T13:38:18;26.00;68.40
1994;DHT22;998;49.906;10.908;2023-07-13T13:40:46;25.80;68.60
1994;DHT22;998;49.906;10.908;2023-07-13T13:43:20;25.50;70.10
1994;DHT22;998;49.906;10.908;2023-07-13T13:45:52;25.60;69.80
1994;DHT22;998;49.906;10.908;2023-07-13T13:48:31;25.80;68.60
1994;DHT22;998;49.906;10.908;2023-07-13T13:50:59;25.70;68.10
1994;DHT22;998;49.906;10.908;2023-07-13T13:53:27;25.60;68.60
1994;DHT22;998;49.906;10.908;2023-07-13T13:55:54;25.50;68.60
1994;DHT22;998;49.906;10.908;2023-07-13T13:58:23;25.50;69.40
1994;DHT22;998;49.906;10.908;2023-07-13T14:00:50;25.40;69.90
1994;DHT22;998;49.906;10.908;2023-07-13T14:03:19;25.70;69.30
1994;DHT22;998;49.906;10.908;2023-07-13T14:05:48;26.00;68.60
1994;DHT22;998;49.906;10.908;2023-07-13T14:08:17;26.50;68.30
1994;DHT22;998;49.906;10.908;2023-07-13T14:10:47;26.90;66.60
1994;DHT22;998;49.906;10.908;2023-07-13T14:13:17;27.10;65.80
1994;DHT22;998;49.906;10.908;2023-07-13T14:15:46;27.30;64.20
1994;DHT22;998;49.906;10.908;2023-07-13T14:18:14;27.50;63.60
1994;DHT22;998;49.906;10.908;2023-07-13T14:20:44;27.50;63.80
1994;DHT22;998;49.906;10.908;2023-07-13T14:23:12;27.30;64.60
1994;DHT22;998;49.906;10.908;2023-07-13T14:25:40;27.10;65.40
1994;DHT22;998;49.906;10.908;2023-07-13T14:28:20;26.90;66.20
1994;DHT22;998;49.906;10.908;2023-07-13T14:30:49;26.90;65.10
1994;DHT22;998;49.906;10.908;2023-07-13T14:33:17;26.70;66.20
1994;DHT22;998;49.906;10.908;2023-07-13T14:35:44;26.70;64.80
1994;DHT22;998;49.906;10.908;2023-07-13T14:38:13;26.60;65.60
1994;DHT22;998;49.906;10.908;2023-07-13T14:40:43;26.20;66.00
1994;DHT22;998;49.906;10.908;2023-07-13T14:43:10;26.10;66.20
1994;DHT22;998;49.906;10.908;2023-07-13T14:45:41;26.00;66.50
1994;DHT22;998;49.906;10.908;2023-07-13T14:48:16;26.10;67.40
1994;DHT22;998;49.906;10.908;2023-07-13T14:50:45;25.90;67.10
1994;DHT22;998;49.906;10.908;2023-07-13T14:53:14;25.90;67.50
1994;DHT22;998;49.906;10.908;2023-07-13T14:55:41;25.80;67.20
1994;DHT22;998;49.906;10.908;2023-07-13T14:58:09;25.60;67.50
1994;DHT22;998;49.906;10.908;2023-07-13T15:00:37;25.60;68.20
1994;DHT22;998;49.906;10.908;2023-07-13T15:03:04;25.50;68.20
1994;DHT22;998;49.906;10.908;2023-07-13T15:05:34;25.60;67.90
1994;DHT22;998;49.906;10.908;2023-07-13T15:08:03;25.70;67.00
1994;DHT22;998;49.906;10.908;2023-07-13T15:10:32;25.80;66.60
1994;DHT22;998;49.906;10.908;2023-07-13T15:13:13;25.90;66.40
1994;DHT22;998;49.906;10.908;2023-07-13T15:15:42;26.10;65.20
1994;DHT22;998;49.906;10.908;2023-07-13T15:18:11;26.00;65.10
1994;DHT22;998;49.906;10.908;2023-07-13T15:20:41;25.80;65.30
1994;DHT22;998;49.906;10.908;2023-07-13T15:23:10;25.80;65.30
1994;DHT22;998;49.906;10.908;2023-07-13T15:25:38;25.60;65.50
1994;DHT22;998;49.906;10.908;2023-07-13T15:28:05;25.70;66.20
1994;DHT22;998;49.906;10.908;2023-07-13T15:30:39;25.80;65.90
1994;DHT22;998;49.906;10.908;2023-07-13T15:33:12;25.90;66.10
1994;DHT22;998;49.906;10.908;2023-07-13T15:35:41;26.20;65.20
1994;DHT22;998;49.906;10.908;2023-07-13T15:38:18;26.30;65.80
1994;DHT22;998;49.906;10.908;2023-07-13T15:40:46;26.20;64.80
1994;DHT22;998;49.906;10.908;2023-07-13T15:43:15;26.10;64.40
1994;DHT22;998;49.906;10.908;2023-07-13T15:45:43;25.90;64.80
1994;DHT22;998;49.906;10.908;2023-07-13T15:48:16;25.90;65.20
1994;DHT22;998;49.906;10.908;2023-07-13T15:50:46;26.00;65.60
1994;DHT22;998;49.906;10.908;2023-07-13T15:53:19;26.10;65.10
1994;DHT22;998;49.906;10.908;2023-07-13T15:55:47;26.30;65.40
1994;DHT22;998;49.906;10.908;2023-07-13T15:58:15;26.50;65.00
1994;DHT22;998;49.906;10.908;2023-07-13T16:00:42;26.30;64.80
1994;DHT22;998;49.906;10.908;2023-07-13T16:03:10;26.10;65.30
1994;DHT22;998;49.906;10.908;2023-07-13T16:05:38;25.90;65.20
1994;DHT22;998;49.906;10.908;2023-07-13T16:08:16;25.80;66.50
1994;DHT22;998;49.906;10.908;2023-07-13T16:10:46;25.80;67.10
1994;DHT22;998;49.906;10.908;2023-07-13T16:13:15;25.70;67.70
1994;DHT22;998;49.906;10.908;2023-07-13T16:15:45;25.70;67.50
1994;DHT22;998;49.906;10.908;2023-07-13T16:18:12;25.60;67.00
1994;DHT22;998;49.906;10.908;2023-07-13T16:20:42;25.60;66.90